Central Village, Connecticut
Current Conditions -  °F | °C
As of 3:17 PM on Wednesday 26 Nov 2014 (Local Time) from KIJD Reporting Station
Moderate Rain Moderate Rain  
Wind Chill: 27°   Ceiling: 1300
Heat Index: 35°   Visibility: 4mi
Dew Point: 32°   Wind: 12mph
Humidity: 89%   Direction: 30°NNE
Pressure: 29.91"   Gusts: NA
Location:  41.72°N, 71.91°W
Report Text: KIJD 262017Z AUTO 03010KT 4SM RA BR FEW009 BKN013 OVC036 02/00 A2991 RMK AO2 P0003 T00170000
Loading
Personal Weather Stations






























Interactive Weather Map New forecast layout! Learn more

10-Day Weather Forecast

Advertisements
Track Severe Weather on mobile